Time;durP1;ratioP1;P1;durP2;ratioP2;P2;SDS_P1;SDS_P2;PMS_P1;PMS_P2;Temp;Humidity;BMP_temperature;BMP_pressure;BME280_temperature;BME280_humidity;BME280_pressure;Samples;Min_cycle;Max_cycle;Signal;HPM_P1;HPM_P2
2023/12/11 00:00:15;;;;;;;52.97;9.90;;;;;;;10.07;100.00;99814.47;5101776;27;20032;-74
2023/12/11 00:02:40;;;;;;;53.28;10.57;;;;;;;9.99;100.00;99811.53;5099280;27;20069;-74
2023/12/11 00:05:06;;;;;;;60.53;10.50;;;;;;;9.94;100.00;99813.72;5105501;27;20186;-73
2023/12/11 00:07:38;;;;;;;59.47;9.75;;;;;;;9.92;100.00;99808.53;5107690;27;20032;-74
2023/12/11 00:10:05;;;;;;;60.55;10.32;;;;;;;9.85;100.00;99801.97;5114591;27;21014;-73
2023/12/11 00:12:31;;;;;;;56.05;10.13;;;;;;;9.94;100.00;99803.94;5105426;27;20102;-74
2023/12/11 00:14:58;;;;;;;47.08;9.80;;;;;;;9.82;100.00;99807.53;5115532;27;20043;-74
2023/12/11 00:17:23;;;;;;;51.13;9.75;;;;;;;9.80;100.00;99807.66;5113996;27;20123;-74
2023/12/11 00:19:49;;;;;;;62.33;9.25;;;;;;;9.85;100.00;99812.63;5111374;27;20039;-75
2023/12/11 00:22:15;;;;;;;62.95;10.65;;;;;;;9.94;100.00;99803.06;5108074;27;20051;-74
2023/12/11 00:24:40;;;;;;;60.40;10.98;;;;;;;9.88;100.00;99809.72;5114850;27;20040;-74
2023/12/11 00:27:06;;;;;;;66.47;10.80;;;;;;;9.83;100.00;99811.88;5106753;27;20055;-73
2023/12/11 00:29:32;;;;;;;75.95;12.25;;;;;;;9.83;100.00;99802.09;5107354;27;20101;-74
2023/12/11 00:31:58;;;;;;;69.78;10.80;;;;;;;9.72;100.00;99815.38;5093016;27;20046;-73
2023/12/11 00:34:23;;;;;;;57.83;10.68;;;;;;;9.81;100.00;99812.00;5109475;27;20039;-73
2023/12/11 00:36:49;;;;;;;59.92;10.75;;;;;;;9.78;100.00;99806.91;5108362;27;20031;-73
2023/12/11 00:39:16;;;;;;;74.78;12.13;;;;;;;9.69;100.00;99797.00;5101687;27;20028;-73
2023/12/11 00:41:44;;;;;;;73.88;11.75;;;;;;;9.64;100.00;99808.94;5113424;27;20050;-73
2023/12/11 00:44:09;;;;;;;61.22;11.20;;;;;;;9.63;100.00;99815.22;5113814;27;20028;-73
2023/12/11 00:46:38;;;;;;;59.80;10.88;;;;;;;9.59;100.00;99806.66;5073284;27;20044;-75
2023/12/11 00:49:07;;;;;;;63.63;10.52;;;;;;;9.55;100.00;99814.00;5112939;27;20036;-74
2023/12/11 00:51:32;;;;;;;65.75;12.70;;;;;;;9.57;100.00;99812.06;5109219;27;20914;-73
2023/12/11 00:53:58;;;;;;;66.03;9.93;;;;;;;9.52;100.00;99808.06;5097091;27;20130;-74
2023/12/11 00:56:23;;;;;;;59.28;11.63;;;;;;;9.52;100.00;99810.72;5111868;27;20096;-73
2023/12/11 00:58:49;;;;;;;60.45;10.80;;;;;;;9.53;100.00;99810.59;5104583;27;20069;-74
2023/12/11 01:01:15;;;;;;;65.63;10.85;;;;;;;9.59;100.00;99811.97;5101704;27;20047;-73
2023/12/11 01:03:40;;;;;;;63.58;10.15;;;;;;;9.52;100.00;99811.56;5108551;27;20040;-73
2023/12/11 01:06:06;;;;;;;53.50;12.25;;;;;;;9.49;100.00;99803.00;5105516;27;20518;-74
2023/12/11 01:08:38;;;;;;;57.95;10.45;;;;;;;9.51;100.00;99801.03;5109559;27;20193;-73
2023/12/11 01:11:08;;;;;;;80.18;11.82;;;;;;;9.43;100.00;99798.94;5111173;27;20036;-74
2023/12/11 01:13:55;;;;;;;60.00;10.75;;;;;;;9.43;100.00;99796.28;5106144;27;20029;-75
2023/12/11 01:16:20;;;;;;;68.57;11.77;;;;;;;9.36;100.00;99791.56;5102223;27;20776;-75
2023/12/11 01:18:47;;;;;;;69.47;12.00;;;;;;;9.40;100.00;99795.69;5102052;27;20032;-73
2023/12/11 01:21:12;;;;;;;70.85;11.73;;;;;;;9.32;100.00;99789.13;5107090;27;20154;-73
2023/12/11 01:23:39;;;;;;;79.05;12.88;;;;;;;9.35;100.00;99790.72;5101702;27;20032;-73
2023/12/11 01:26:08;;;;;;;73.05;10.55;;;;;;;9.33;100.00;99789.97;5102916;27;20030;-73
2023/12/11 01:28:38;;;;;;;66.47;10.98;;;;;;;9.32;100.00;99789.13;5101361;27;20032;-73
2023/12/11 01:31:07;;;;;;;60.15;11.07;;;;;;;9.30;100.00;99787.56;5107912;27;20135;-74
2023/12/11 01:33:32;;;;;;;64.85;11.65;;;;;;;9.29;100.00;99780.53;5096970;27;20554;-73
2023/12/11 01:35:58;;;;;;;63.15;11.00;;;;;;;9.34;100.00;99781.03;5112419;27;20036;-73
2023/12/11 01:38:24;;;;;;;55.78;11.98;;;;;;;9.43;100.00;99779.47;5107645;27;20618;-73
2023/12/11 01:40:49;;;;;;;76.03;11.30;;;;;;;9.39;100.00;99770.03;5091932;27;20031;-73
2023/12/11 01:43:17;;;;;;;68.88;10.30;;;;;;;9.41;100.00;99768.13;5108512;27;20044;-73
2023/12/11 01:45:44;;;;;;;72.53;12.23;;;;;;;9.34;100.00;99755.28;5108254;27;20031;-74
2023/12/11 01:48:11;;;;;;;66.10;10.77;;;;;;;9.32;100.00;99759.84;5103597;27;20032;-72
2023/12/11 01:50:38;;;;;;;63.65;11.00;;;;;;;9.34;100.00;99765.94;5112173;27;20043;-71
2023/12/11 01:53:06;;;;;;;63.13;11.98;;;;;;;9.33;100.00;99758.03;5099944;27;20032;-72
2023/12/11 01:55:36;;;;;;;61.85;10.32;;;;;;;9.22;100.00;99758.84;5077594;27;20095;-72
2023/12/11 01:58:08;;;;;;;71.38;11.70;;;;;;;9.25;100.00;99755.97;5112640;27;20121;-73
2023/12/11 02:00:35;;;;;;;65.65;11.10;;;;;;;9.17;100.00;99749.53;5110571;27;20047;-72
2023/12/11 02:03:00;;;;;;;65.38;12.02;;;;;;;9.16;100.00;99739.84;5109161;27;20024;-73
2023/12/11 02:05:26;;;;;;;59.22;9.35;;;;;;;9.14;100.00;99739.13;5095482;27;20047;-73
2023/12/11 02:07:53;;;;;;;77.90;12.35;;;;;;;9.06;100.00;99737.88;5109702;27;20044;-75
2023/12/11 02:10:19;;;;;;;61.10;10.73;;;;;;;9.10;100.00;99738.50;5092445;27;20113;-74
2023/12/11 02:12:45;;;;;;;74.38;10.68;;;;;;;9.12;100.00;99738.38;5114500;27;20529;-73
2023/12/11 02:15:10;;;;;;;70.45;11.38;;;;;;;9.13;100.00;99735.59;5094632;27;20032;-74
2023/12/11 02:17:36;;;;;;;59.70;10.15;;;;;;;9.24;100.00;99729.50;5114975;27;20040;-75
2023/12/11 02:20:05;;;;;;;88.13;13.20;;;;;;;9.12;100.00;99725.09;5107081;27;20110;-76
2023/12/11 02:22:38;;;;;;;69.72;10.65;;;;;;;9.21;100.00;99719.94;5113370;27;20102;-73
2023/12/11 02:25:06;;;;;;;76.78;10.65;;;;;;;9.24;100.00;99719.72;5105104;27;20036;-74
2023/12/11 02:27:32;;;;;;;63.53;11.60;;;;;;;9.30;100.00;99713.06;5112641;27;20402;-74
2023/12/11 02:29:58;;;;;;;57.15;9.32;;;;;;;9.26;100.00;99716.91;5073321;27;20028;-75
2023/12/11 02:32:23;;;;;;;75.40;13.13;;;;;;;9.33;100.00;99716.31;5092162;27;20024;-74
2023/12/11 02:34:52;;;;;;;69.82;11.40;;;;;;;9.38;100.00;99710.66;5084191;27;20815;-74
2023/12/11 02:37:18;;;;;;;67.80;11.85;;;;;;;9.48;100.00;99698.34;5109326;27;20070;-75
2023/12/11 02:39:44;;;;;;;67.13;10.88;;;;;;;9.48;100.00;99705.47;5114170;27;20719;-74
2023/12/11 02:42:10;;;;;;;66.80;11.85;;;;;;;9.55;100.00;99706.72;5091401;27;20044;-74
2023/12/11 02:44:35;;;;;;;65.70;11.43;;;;;;;9.62;100.00;99702.59;5107902;27;20031;-75
2023/12/11 02:47:06;;;;;;;66.47;10.80;;;;;;;9.66;100.00;99687.25;5111651;27;20091;-74
2023/12/11 02:49:32;;;;;;;53.95;10.57;;;;;;;9.72;100.00;99679.63;5108061;27;20109;-75
2023/12/11 02:51:58;;;;;;;59.95;9.23;;;;;;;9.68;100.00;99688.81;5095724;28;20109;-74
2023/12/11 02:54:24;;;;;;;63.85;10.90;;;;;;;9.73;100.00;99694.59;5095024;27;20040;-74
2023/12/11 02:56:49;;;;;;;61.05;10.88;;;;;;;9.71;100.00;99677.91;5095489;28;20043;-74
2023/12/11 02:59:15;;;;;;;69.70;11.77;;;;;;;9.71;100.00;99677.91;5076393;28;20485;-74
2023/12/11 03:01:40;;;;;;;58.35;11.40;;;;;;;9.69;100.00;99674.53;5096474;27;20079;-74
2023/12/11 03:04:06;;;;;;;76.28;12.45;;;;;;;9.69;100.00;99671.88;5096384;28;20071;-73
2023/12/11 03:06:32;;;;;;;73.72;11.77;;;;;;;9.67;100.00;99679.13;5074634;28;20044;-75
2023/12/11 03:09:02;;;;;;;68.45;11.50;;;;;;;9.59;100.00;99686.88;5093622;27;20096;-74
2023/12/11 03:11:32;;;;;;;65.65;11.15;;;;;;;9.66;100.00;99690.75;5095150;27;20503;-74
2023/12/11 03:13:58;;;;;;;57.25;9.98;;;;;;;9.66;100.00;99689.91;5096769;28;20109;-75
2023/12/11 03:16:23;;;;;;;66.38;10.35;;;;;;;9.58;100.00;99680.69;5097782;28;20517;-75
2023/12/11 03:18:49;;;;;;;69.65;12.88;;;;;;;9.58;100.00;99674.50;5096078;27;20024;-73
2023/12/11 03:21:15;;;;;;;61.95;10.15;;;;;;;9.54;100.00;99673.09;5084276;28;20191;-75
2023/12/11 03:23:40;;;;;;;56.15;9.35;;;;;;;9.55;100.00;99670.28;5089000;27;20040;-75
2023/12/11 03:26:06;;;;;;;68.47;10.18;;;;;;;9.62;100.00;99656.50;5091489;28;20029;-75
2023/12/11 03:28:32;;;;;;;71.82;10.68;;;;;;;9.62;100.00;99645.84;5094823;28;20064;-75
2023/12/11 03:30:58;;;;;;;70.35;11.25;;;;;;;9.58;100.00;99642.59;5096921;27;20098;-73
2023/12/11 03:33:23;;;;;;;57.95;9.52;;;;;;;9.63;100.00;99632.41;5088391;27;20035;-75
2023/12/11 03:35:49;;;;;;;87.00;11.45;;;;;;;9.51;100.00;99617.44;5085575;28;20028;-74
2023/12/11 03:38:15;;;;;;;59.17;9.75;;;;;;;9.63;100.00;99608.47;5094159;27;20059;-72
2023/12/11 03:40:41;;;;;;;66.95;10.20;;;;;;;9.65;100.00;99613.69;5094713;27;20063;-74
2023/12/11 03:43:06;;;;;;;50.85;8.43;;;;;;;9.64;100.00;99634.13;5092158;28;20032;-72
2023/12/11 03:45:35;;;;;;;65.50;9.77;;;;;;;9.77;100.00;99674.78;5074044;28;20811;-73
2023/12/11 03:48:04;;;;;;;54.50;10.30;;;;;;;9.74;100.00;99664.38;5080447;28;20036;-73
2023/12/11 03:50:33;;;;;;;65.60;9.90;;;;;;;9.66;100.00;99673.94;5106107;27;20077;-74
2023/12/11 03:52:59;;;;;;;49.47;9.45;;;;;;;9.66;100.00;99660.63;5102763;27;20093;-75
2023/12/11 03:55:25;;;;;;;57.28;8.70;;;;;;;9.67;100.00;99659.66;5106158;27;20574;-75
2023/12/11 03:57:50;;;;;;;55.00;9.77;;;;;;;9.62;100.00;99646.69;5107853;27;20060;-74
2023/12/11 04:00:16;;;;;;;37.60;7.63;;;;;;;9.58;100.00;99651.41;5110492;27;20076;-75
2023/12/11 04:02:42;;;;;;;42.60;7.47;;;;;;;9.56;100.00;99633.88;5102972;27;20051;-74
2023/12/11 04:05:08;;;;;;;44.90;7.40;;;;;;;9.54;100.00;99641.16;5092513;27;20055;-74
2023/12/11 04:07:34;;;;;;;55.08;9.25;;;;;;;9.54;100.00;99639.34;5112739;27;20042;-74
2023/12/11 04:10:03;;;;;;;47.58;8.38;;;;;;;9.56;100.00;99636.53;5099929;27;20047;-75
2023/12/11 04:12:29;;;;;;;42.90;8.25;;;;;;;9.54;100.00;99641.16;5107252;27;20079;-74
2023/12/11 04:14:54;;;;;;;61.05;11.85;;;;;;;9.59;100.00;99642.47;5113194;27;20033;-75
2023/12/11 04:17:20;;;;;;;57.90;9.95;;;;;;;9.48;100.00;99653.09;5107223;27;20839;-75
2023/12/11 04:19:46;;;;;;;30.42;5.03;;;;;;;9.50;100.00;99629.91;5107986;27;20917;-75
2023/12/11 04:22:12;;;;;;;21.48;4.07;;;;;;;9.41;100.00;99614.66;5108353;27;21305;-74
2023/12/11 04:24:37;;;;;;;15.77;3.53;;;;;;;9.38;100.00;99611.38;5109742;27;20031;-76
2023/12/11 04:27:04;;;;;;;18.85;3.00;;;;;;;9.32;100.00;99616.19;5099584;27;20524;-74
2023/12/11 04:29:29;;;;;;;18.98;3.15;;;;;;;9.28;100.00;99627.19;5107995;27;20038;-75
2023/12/11 04:31:55;;;;;;;23.02;3.60;;;;;;;9.33;100.00;99633.00;5105983;27;20028;-74
2023/12/11 04:34:20;;;;;;;20.35;4.57;;;;;;;9.30;100.00;99627.94;5104413;27;20518;-74
2023/12/11 04:36:49;;;;;;;28.55;5.18;;;;;;;9.26;100.00;99624.66;5108766;27;20139;-75
2023/12/11 04:39:14;;;;;;;40.83;6.97;;;;;;;9.34;100.00;99624.94;5111396;27;20031;-75
2023/12/11 04:41:42;;;;;;;40.67;7.60;;;;;;;9.28;100.00;99612.06;5106198;27;20043;-74
2023/12/11 04:44:08;;;;;;;40.35;7.30;;;;;;;9.31;100.00;99619.00;5106416;27;20036;-74
2023/12/11 04:46:34;;;;;;;46.25;8.95;;;;;;;9.23;100.00;99616.91;5096839;27;20549;-74
2023/12/11 04:48:59;;;;;;;49.83;9.10;;;;;;;9.22;100.00;99636.50;5107655;27;20035;-74
2023/12/11 04:51:25;;;;;;;60.42;9.65;;;;;;;9.22;100.00;99625.00;5106280;27;20043;-74
2023/12/11 04:53:53;;;;;;;46.30;8.02;;;;;;;9.20;100.00;99624.31;5103510;27;20031;-74
2023/12/11 04:56:19;;;;;;;50.72;9.30;;;;;;;9.26;100.00;99621.16;5111350;27;20119;-75
2023/12/11 04:58:44;;;;;;;49.88;9.52;;;;;;;9.27;100.00;99623.69;5096183;27;20040;-74
2023/12/11 05:01:10;;;;;;;50.53;9.40;;;;;;;9.34;100.00;99624.09;5104001;27;20044;-74
2023/12/11 05:03:39;;;;;;;55.95;9.73;;;;;;;9.29;100.00;99623.59;5111242;27;20101;-76
2023/12/11 05:06:05;;;;;;;54.20;9.77;;;;;;;9.33;100.00;99623.22;5110769;27;20035;-74
2023/12/11 05:08:31;;;;;;;53.55;10.05;;;;;;;9.39;100.00;99618.38;5106769;27;20067;-74
2023/12/11 05:10:57;;;;;;;54.65;9.70;;;;;;;9.41;100.00;99608.47;5111798;27;20035;-74
2023/12/11 05:13:23;;;;;;;59.95;9.38;;;;;;;9.42;100.00;99624.31;5099773;27;20093;-74
2023/12/11 05:15:49;;;;;;;48.30;8.35;;;;;;;9.46;100.00;99623.09;5087957;28;20917;-74
2023/12/11 05:18:14;;;;;;;37.05;8.02;;;;;;;9.49;100.00;99620.22;5095293;27;20034;-74
2023/12/11 05:20:40;;;;;;;65.18;11.25;;;;;;;9.46;100.00;99601.81;5095390;27;20055;-75
2023/12/11 05:23:06;;;;;;;54.05;9.57;;;;;;;9.53;100.00;99602.19;5106044;27;20044;-75
2023/12/11 05:25:37;;;;;;;47.25;8.57;;;;;;;9.57;100.00;99595.66;5107029;27;20102;-73
2023/12/11 05:28:04;;;;;;;56.03;9.32;;;;;;;9.59;100.00;99604.38;5108249;27;20139;-74
2023/12/11 05:30:31;;;;;;;54.33;10.50;;;;;;;9.63;100.00;99596.97;5095142;27;20035;-73
2023/12/11 05:32:56;;;;;;;55.65;9.52;;;;;;;9.65;100.00;99600.38;5108484;27;20028;-74
2023/12/11 05:35:22;;;;;;;51.08;8.57;;;;;;;9.59;100.00;99596.41;5087965;27;20032;-75
2023/12/11 05:37:47;;;;;;;60.83;9.20;;;;;;;9.60;100.00;99598.09;5100567;27;20054;-72
2023/12/11 05:40:13;;;;;;;53.25;10.00;;;;;;;9.59;100.00;99594.56;5103020;27;20048;-73
2023/12/11 05:42:39;;;;;;;50.30;8.73;;;;;;;9.59;100.00;99581.28;5103222;27;20051;-75
2023/12/11 05:45:06;;;;;;;58.35;8.73;;;;;;;9.55;100.00;99584.28;5106437;27;20050;-75
2023/12/11 05:47:38;;;;;;;53.88;10.38;;;;;;;9.59;100.00;99573.28;5106581;27;20028;-74
2023/12/11 05:50:06;;;;;;;53.83;9.88;;;;;;;9.56;100.00;99585.97;5107256;27;20106;-74
2023/12/11 05:52:35;;;;;;;47.10;10.27;;;;;;;9.66;100.00;99586.09;5100873;27;20028;-73
2023/12/11 05:55:10;;;;;;;53.05;10.38;;;;;;;9.60;100.00;99580.28;5106310;27;20036;-76
2023/12/11 05:57:36;;;;;;;57.03;9.38;;;;;;;9.62;100.00;99574.00;5108833;27;20036;-73
2023/12/11 06:00:09;;;;;;;63.00;11.20;;;;;;;9.52;100.00;99588.03;5106934;27;20031;-72
2023/12/11 06:02:36;;;;;;;58.85;11.05;;;;;;;9.56;100.00;99567.34;5107095;27;20040;-76
2023/12/11 06:05:08;;;;;;;48.10;7.88;;;;;;;9.53;100.00;99570.25;5101500;27;20233;-73
2023/12/11 06:07:35;;;;;;;56.55;9.32;;;;;;;9.59;100.00;99565.31;5103888;27;20028;-74
2023/12/11 06:10:07;;;;;;;59.95;8.63;;;;;;;9.63;100.00;99563.22;5097441;27;20998;-76
2023/12/11 06:12:32;;;;;;;43.28;9.27;;;;;;;9.66;100.00;99564.81;5113684;27;20338;-76
2023/12/11 06:14:58;;;;;;;41.90;7.82;;;;;;;9.62;100.00;99560.69;5115062;27;20066;-75
2023/12/11 06:17:24;;;;;;;37.33;7.75;;;;;;;9.62;100.00;99550.03;5112919;27;20036;-77
2023/12/11 06:19:50;;;;;;;51.50;8.95;;;;;;;9.61;100.00;99543.88;5104397;27;20031;-76
2023/12/11 06:22:16;;;;;;;58.83;9.82;;;;;;;9.67;100.00;99550.53;5108706;27;20038;-76
2023/12/11 06:24:42;;;;;;;45.53;8.80;;;;;;;9.65;100.00;99553.31;5111248;27;20399;-76
2023/12/11 06:27:08;;;;;;;56.83;9.10;;;;;;;9.69;100.00;99552.09;5116343;27;20040;-73
2023/12/11 06:29:34;;;;;;;57.08;8.57;;;;;;;9.67;100.00;99561.16;5110264;27;20040;-77
2023/12/11 06:32:04;;;;;;;65.50;9.55;;;;;;;9.59;100.00;99564.47;5112307;27;20039;-76
2023/12/11 06:34:33;;;;;;;48.75;8.75;;;;;;;9.51;100.00;99569.53;5112419;27;20031;-76
2023/12/11 06:36:59;;;;;;;52.78;9.27;;;;;;;9.50;100.00;99563.38;5076550;27;20042;-76
2023/12/11 06:39:25;;;;;;;49.50;8.63;;;;;;;9.50;100.00;99576.66;5112761;27;20107;-75
2023/12/11 06:41:51;;;;;;;53.53;9.57;;;;;;;9.54;100.00;99579.94;5108411;27;20048;-74
2023/12/11 06:44:16;;;;;;;61.35;9.35;;;;;;;9.49;100.00;99587.44;5112616;27;20044;-74
2023/12/11 06:46:44;;;;;;;64.00;10.50;;;;;;;9.50;100.00;99597.97;5107299;27;20414;-76
2023/12/11 06:49:12;;;;;;;51.13;7.22;;;;;;;9.40;100.00;99588.16;5106014;27;20120;-77
2023/12/11 06:51:38;;;;;;;49.72;10.18;;;;;;;9.41;100.00;99614.66;5085180;28;20036;-76
2023/12/11 06:54:08;;;;;;;44.28;10.13;;;;;;;9.33;100.00;99611.72;5085183;28;20036;-75
2023/12/11 06:56:37;;;;;;;54.25;8.75;;;;;;;9.41;100.00;99604.00;5077054;28;20101;-75
2023/12/11 06:59:07;;;;;;;48.05;8.07;;;;;;;9.36;100.00;99603.50;5089994;28;20039;-77
2023/12/11 07:01:35;;;;;;;50.72;9.52;;;;;;;9.33;100.00;99606.41;5077249;28;20044;-77
2023/12/11 07:04:12;;;;;;;43.47;7.90;;;;;;;9.29;100.00;99615.63;5082623;28;20048;-76
2023/12/11 07:06:37;;;;;;;52.08;8.98;;;;;;;9.25;100.00;99612.34;5088887;28;20040;-75
2023/12/11 07:09:04;;;;;;;46.25;8.02;;;;;;;9.28;100.00;99620.06;5084593;28;20458;-74
2023/12/11 07:11:30;;;;;;;59.08;7.70;;;;;;;9.33;100.00;99633.00;5087224;28;20044;-75
2023/12/11 07:13:56;;;;;;;52.35;9.10;;;;;;;9.27;100.00;99623.69;5077337;28;20032;-76
2023/12/11 07:16:23;;;;;;;48.75;7.28;;;;;;;9.27;100.00;99631.66;5072490;28;20029;-75
2023/12/11 07:18:52;;;;;;;47.13;7.57;;;;;;;9.24;100.00;99623.09;5086244;28;20036;-76
2023/12/11 07:21:18;;;;;;;46.05;8.15;;;;;;;9.26;100.00;99631.78;5087941;28;20036;-76
2023/12/11 07:23:44;;;;;;;38.33;7.57;;;;;;;9.26;100.00;99624.66;5085256;28;20783;-76
2023/12/11 07:26:10;;;;;;;45.10;7.07;;;;;;;9.27;100.00;99620.19;5089682;28;20032;-76
2023/12/11 07:28:38;;;;;;;39.13;8.55;;;;;;;9.29;100.00;99604.97;5091401;28;20522;-77
2023/12/11 07:31:07;;;;;;;39.15;7.18;;;;;;;9.28;100.00;99587.28;5092323;28;20032;-76
2023/12/11 07:33:33;;;;;;;40.63;8.07;;;;;;;9.29;100.00;99584.53;5084315;28;20139;-76
2023/12/11 07:35:59;;;;;;;37.50;6.95;;;;;;;9.34;100.00;99585.03;5085678;28;20036;-75
2023/12/11 07:38:25;;;;;;;36.75;6.97;;;;;;;9.36;100.00;99571.59;5087541;28;20040;-76
2023/12/11 07:40:54;;;;;;;35.92;6.43;;;;;;;9.29;100.00;99587.19;5089989;28;20036;-76
2023/12/11 07:43:20;;;;;;;45.70;7.35;;;;;;;9.34;100.00;99571.72;5088835;28;20055;-75
2023/12/11 07:45:47;;;;;;;39.33;6.88;;;;;;;9.32;100.00;99573.63;5085424;28;20581;-76
2023/12/11 07:48:12;;;;;;;45.60;6.00;;;;;;;9.35;100.00;99588.53;5073524;28;20033;-75
2023/12/11 07:50:41;;;;;;;30.73;6.13;;;;;;;9.25;100.00;99595.53;5101802;27;20055;-75
2023/12/11 07:53:06;;;;;;;45.30;7.07;;;;;;;9.25;100.00;99607.00;5106684;27;20039;-76
2023/12/11 07:55:38;;;;;;;30.80;6.57;;;;;;;9.28;100.00;99605.91;5094859;27;20032;-77
2023/12/11 07:58:07;;;;;;;43.22;7.07;;;;;;;9.25;100.00;99614.16;5105434;27;20094;-77
2023/12/11 08:00:35;;;;;;;37.22;6.82;;;;;;;9.27;100.00;99618.38;5101583;27;20038;-75
2023/12/11 08:03:10;;;;;;;34.95;6.63;;;;;;;9.21;100.00;99616.19;5109904;27;20873;-75
2023/12/11 08:05:36;;;;;;;31.33;6.57;;;;;;;9.31;100.00;99625.16;5107204;27;20451;-76
2023/12/11 08:08:06;;;;;;;31.20;6.03;;;;;;;9.34;100.00;99621.44;5086599;27;20032;-77
2023/12/11 08:10:35;;;;;;;26.40;5.43;;;;;;;9.33;100.00;99619.69;5099398;27;20289;-75
2023/12/11 08:13:05;;;;;;;27.80;5.18;;;;;;;9.28;100.00;99627.19;5108113;27;20043;-75
2023/12/11 08:15:31;;;;;;;29.40;6.00;;;;;;;9.32;100.00;99620.69;5090202;27;20195;-76
2023/12/11 08:18:00;;;;;;;24.55;4.57;;;;;;;9.31;100.00;99611.84;5100275;27;20036;-76
2023/12/11 08:20:27;;;;;;;27.98;6.25;;;;;;;9.31;100.00;99608.34;5085045;27;20032;-77
2023/12/11 08:22:53;;;;;;;26.83;4.72;;;;;;;9.37;100.00;99621.16;5091725;28;20580;-76
2023/12/11 08:25:19;;;;;;;19.80;4.13;;;;;;;9.36;100.00;99611.50;5095255;27;20047;-76
2023/12/11 08:27:44;;;;;;;27.80;4.82;;;;;;;9.37;100.00;99617.66;5113135;27;20038;-76
2023/12/11 08:30:11;;;;;;;17.75;4.05;;;;;;;9.39;100.00;99634.34;5101895;27;20665;-76
2023/12/11 08:32:38;;;;;;;28.55;4.80;;;;;;;9.34;100.00;99643.56;5096632;27;20023;-76
2023/12/11 08:35:07;;;;;;;29.02;5.35;;;;;;;9.29;100.00;99658.19;5105044;27;20147;-76
2023/12/11 08:37:33;;;;;;;20.83;3.95;;;;;;;9.22;100.00;99665.75;5103913;27;20036;-76
2023/12/11 08:39:59;;;;;;;36.10;5.63;;;;;;;9.23;100.00;99682.56;5096052;27;20039;-76
2023/12/11 08:42:25;;;;;;;32.20;5.00;;;;;;;9.17;100.00;99701.66;5109143;27;20043;-75
2023/12/11 08:44:50;;;;;;;34.25;5.18;;;;;;;9.18;100.00;99698.03;5106067;27;20044;-75
2023/12/11 08:47:18;;;;;;;28.40;5.13;;;;;;;9.19;100.00;99707.72;5092967;27;20572;-76
2023/12/11 08:49:45;;;;;;;20.55;5.15;;;;;;;9.25;100.00;99723.22;5106589;27;20078;-75
2023/12/11 08:52:10;;;;;;;18.80;4.05;;;;;;;9.25;100.00;99721.41;5097852;27;20083;-75
2023/12/11 08:54:36;;;;;;;27.63;4.88;;;;;;;9.26;100.00;99709.78;5111162;27;20043;-75
2023/12/11 08:57:13;;;;;;;28.27;5.65;;;;;;;9.34;100.00;99715.38;5105191;27;21158;-77
2023/12/11 08:59:39;;;;;;;15.98;4.80;;;;;;;9.34;100.00;99719.84;5108818;27;20030;-75
2023/12/11 09:02:08;;;;;;;16.40;4.07;;;;;;;9.37;100.00;99716.94;5104096;27;20738;-76
2023/12/11 09:04:34;;;;;;;20.27;6.07;;;;;;;9.40;100.00;99722.03;5104406;27;20031;-75
2023/12/11 09:06:59;;;;;;;26.65;4.85;;;;;;;9.36;100.00;99731.22;5077386;28;20147;-76
2023/12/11 09:09:25;;;;;;;21.25;4.80;;;;;;;9.40;100.00;99739.81;5104282;27;20521;-76
2023/12/11 09:11:51;;;;;;;22.58;4.80;;;;;;;9.41;100.00;99725.53;5108589;27;20040;-76
2023/12/11 09:14:17;;;;;;;19.75;5.03;;;;;;;9.48;100.00;99729.41;5093735;27;20089;-75
2023/12/11 09:16:43;;;;;;;18.17;5.10;;;;;;;9.63;100.00;99724.72;5108693;27;20527;-75
2023/12/11 09:19:08;;;;;;;13.30;4.20;;;;;;;9.57;100.00;99740.22;5105484;27;20498;-76
2023/12/11 09:21:37;;;;;;;25.50;4.68;;;;;;;9.72;100.00;99734.66;5089399;27;20051;-76
2023/12/11 09:24:04;;;;;;;15.70;3.97;;;;;;;9.79;100.00;99730.59;5108414;27;20173;-75
2023/12/11 09:26:29;;;;;;;18.42;4.20;;;;;;;9.88;100.00;99734.31;5112911;27;20123;-76
2023/12/11 09:28:55;;;;;;;18.73;3.38;;;;;;;9.92;100.00;99733.97;5104654;27;20133;-76
2023/12/11 09:31:30;;;;;;;28.65;4.35;;;;;;;9.98;100.00;99741.47;5108460;27;20149;-76
2023/12/11 09:33:56;;;;;;;16.00;3.65;;;;;;;10.04;100.00;99745.44;5088923;27;20552;-76
2023/12/11 09:36:24;;;;;;;12.98;3.10;;;;;;;10.07;100.00;99750.56;5102392;27;20039;-76
2023/12/11 09:38:50;;;;;;;12.88;3.00;;;;;;;9.95;100.00;99763.03;5114227;27;20036;-76
2023/12/11 09:41:15;;;;;;;18.35;3.92;;;;;;;10.00;100.00;99762.66;5069525;28;20909;-76
2023/12/11 09:43:42;;;;;;;16.27;3.45;;;;;;;9.93;100.00;99772.94;5095707;27;20044;-76
2023/12/11 09:46:11;;;;;;;17.15;3.50;;;;;;;9.97;100.00;99774.41;5101020;27;20036;-76
2023/12/11 09:48:37;;;;;;;19.45;3.30;;;;;;;10.05;100.00;99782.63;5083481;28;20044;-74
2023/12/11 09:51:07;;;;;;;19.67;3.80;;;;;;;10.08;100.00;99785.03;5094388;27;20047;-76
2023/12/11 09:53:39;;;;;;;14.27;3.20;;;;;;;10.00;100.00;99791.97;5099349;27;20027;-76
2023/12/11 09:56:08;;;;;;;19.13;3.70;;;;;;;9.99;100.00;99793.78;5108716;27;20035;-75
2023/12/11 09:58:35;;;;;;;16.98;3.00;;;;;;;9.99;100.00;99795.56;5113691;27;20055;-75
2023/12/11 10:01:07;;;;;;;15.18;3.72;;;;;;;10.01;100.00;99807.81;5100408;27;20032;-76
2023/12/11 10:03:33;;;;;;;15.35;4.10;;;;;;;10.05;100.00;99808.44;5105375;27;20028;-76
2023/12/11 10:05:59;;;;;;;17.35;3.92;;;;;;;9.99;100.00;99804.44;5102621;27;20782;-76
2023/12/11 10:08:25;;;;;;;17.30;4.18;;;;;;;10.02;100.00;99812.16;5104211;27;20035;-75
2023/12/11 10:11:11;;;;;;;12.13;3.38;;;;;;;10.08;100.00;99811.69;5086525;28;20036;-75
2023/12/11 10:13:40;;;;;;;11.75;3.28;;;;;;;10.12;100.00;99821.13;5076889;27;20037;-75
2023/12/11 10:16:27;;;;;;;16.60;3.97;;;;;;;10.07;100.00;99828.63;5106858;27;20039;-76
2023/12/11 10:19:14;;;;;;;12.77;3.45;;;;;;;10.11;100.00;99845.25;5089900;27;20088;-76
2023/12/11 10:21:40;;;;;;;18.17;3.72;;;;;;;10.19;100.00;99847.28;5092170;27;20125;-75
2023/12/11 10:24:13;;;;;;;15.27;3.60;;;;;;;10.13;100.00;99856.63;5112398;27;20043;-76
2023/12/11 10:26:45;;;;;;;27.95;4.15;;;;;;;10.11;100.00;99863.88;5113841;27;20957;-75
2023/12/11 10:29:18;;;;;;;26.23;4.45;;;;;;;10.00;100.00;99867.38;5107683;27;20394;-75
2023/12/11 10:31:44;;;;;;;23.73;4.20;;;;;;;10.01;100.00;99869.06;5103441;27;20615;-75
2023/12/11 10:34:10;;;;;;;27.83;4.57;;;;;;;10.16;100.00;99887.50;5111427;27;20046;-76
2023/12/11 10:36:49;;;;;;;28.90;4.40;;;;;;;10.01;100.00;99902.84;5096594;27;20053;-75
2023/12/11 10:39:15;;;;;;;17.83;5.60;;;;;;;9.94;100.00;99909.59;5093622;27;20037;-75
2023/12/11 10:41:40;;;;;;;18.25;4.50;;;;;;;9.71;100.00;99914.84;5113502;27;20127;-75
2023/12/11 10:44:06;;;;;;;17.95;4.75;;;;;;;9.68;100.00;99927.53;5100199;27;20567;-76
2023/12/11 10:46:37;;;;;;;22.40;4.90;;;;;;;9.64;100.00;99934.91;5099544;27;20043;-75
2023/12/11 10:49:04;;;;;;;24.27;5.70;;;;;;;9.61;100.00;99945.78;5108250;27;20474;-76
2023/12/11 10:51:32;;;;;;;21.27;4.72;;;;;;;9.66;100.00;99946.28;5101339;27;20105;-75
2023/12/11 10:53:58;;;;;;;31.00;5.25;;;;;;;9.63;100.00;99957.16;5109375;27;20036;-76
2023/12/11 10:56:24;;;;;;;26.08;6.10;;;;;;;9.68;100.00;99948.81;5098328;27;20140;-76
2023/12/11 10:58:50;;;;;;;25.45;5.38;;;;;;;9.71;100.00;99948.59;5116695;27;20040;-76
2023/12/11 11:01:19;;;;;;;26.00;5.30;;;;;;;9.80;100.00;99956.75;5106471;27;20043;-75
2023/12/11 11:03:45;;;;;;;33.08;5.80;;;;;;;9.79;100.00;99951.56;5113980;27;20234;-76
2023/12/11 11:06:11;;;;;;;15.65;4.97;;;;;;;9.93;100.00;99955.81;5098525;27;20029;-76
2023/12/11 11:09:00;;;;;;;23.02;4.55;;;;;;;9.97;100.00;99959.97;5091770;27;20051;-76
2023/12/11 11:11:37;;;;;;;22.40;5.20;;;;;;;9.91;100.00;99963.94;5099394;27;20113;-75
2023/12/11 11:14:42;;;;;;;21.85;4.93;;;;;;;9.73;100.00;99963.47;5102526;27;20024;-75
2023/12/11 11:17:10;;;;;;;26.45;5.43;;;;;;;9.69;100.00;99971.81;5087908;27;20658;-75
2023/12/11 11:19:36;;;;;;;18.38;4.22;;;;;;;9.70;100.00;99982.38;5109264;27;20044;-75
2023/12/11 11:22:11;;;;;;;20.92;5.22;;;;;;;9.77;100.00;99975.63;5109360;27;20062;-76